Decoded Metar for LFRO (LANNION in FRANCE) (IATA:LAI) | Meteo·Mobile Aviation Weather
aviador You're here:

LFRO Decoded Metar

LANNION in FRANCE
Report Time2019-10-19 23:00:00
UTC Time2019-10-19 23:07:41
Flight Rules vfr VFR
Wind220° at 03 kt
W.Decomp.*RWY 29: 1.1 kt HW 2.8 kt LCW
Visibility9999 m
Phenomena:N/A
Clouds:Few 030 Hf
CeilingNone
Temp08°C (ISA -6)
Dew Point08°C (100% RH)
AAT6.5°C
QNH1006 hPa
Density Alt-95 ft
Elevation292 ft
Report Wrong Elevation
Raw Report
METAR LFRO 192300Z AUTO 22003KT 9999 FEW030 08/08 Q1006=

Extra information for LFRO:More info

Metar Taf Metar & Taf Last 4 Metars F.Rules Stats Wind Profile Meteogram Temp Stats Airport Information Weather charts Add Link Nearby VenuesMetar ALERT Operation Metar Decoded Social comments